createdAt,value
2023-12-05T00:01:34.042Z,24.48
2023-12-05T00:04:02.092Z,24.88
2023-12-05T00:06:29.804Z,25.90
2023-12-05T00:08:57.523Z,24.58
2023-12-05T00:11:26.335Z,24.63
2023-12-05T00:13:54.171Z,26.08
2023-12-05T00:16:22.399Z,25.05
2023-12-05T00:18:51.504Z,30.23
2023-12-05T00:21:19.417Z,25.73
2023-12-05T00:23:47.054Z,25.85
2023-12-05T00:26:14.694Z,27.33
2023-12-05T00:28:42.477Z,25.20
2023-12-05T00:31:10.257Z,26.60
2023-12-05T00:33:38.098Z,28.15
2023-12-05T00:36:05.994Z,24.42
2023-12-05T00:38:34.863Z,27.80
2023-12-05T00:41:02.724Z,23.67
2023-12-05T00:43:30.458Z,28.27
2023-12-05T00:45:58.849Z,25.10
2023-12-05T00:48:26.617Z,26.55
2023-12-05T00:50:54.466Z,25.48
2023-12-05T00:53:22.121Z,26.45
2023-12-05T00:55:49.999Z,25.05
2023-12-05T00:58:17.808Z,24.85
2023-12-05T01:00:45.814Z,27.73
2023-12-05T01:03:13.847Z,26.92
2023-12-05T01:05:41.783Z,26.08
2023-12-05T01:08:09.775Z,26.90
2023-12-05T01:10:37.511Z,24.88
2023-12-05T01:13:05.523Z,25.83
2023-12-05T01:15:33.755Z,25.25
2023-12-05T01:18:01.581Z,26.60
2023-12-05T01:20:29.265Z,27.13
2023-12-05T01:22:57.404Z,28.63
2023-12-05T01:25:25.350Z,25.77
2023-12-05T01:27:53.378Z,28.77
2023-12-05T01:30:21.237Z,27.67
2023-12-05T01:32:49.220Z,26.65
2023-12-05T01:35:17.799Z,27.77
2023-12-05T01:37:46.196Z,28.60
2023-12-05T01:40:13.940Z,27.70
2023-12-05T01:42:41.607Z,30.35
2023-12-05T01:45:10.079Z,28.85
2023-12-05T01:47:40.809Z,30.73
2023-12-05T01:50:14.592Z,30.33
2023-12-05T01:52:46.301Z,34.22
2023-12-05T01:55:14.277Z,32.40
2023-12-05T01:57:42.051Z,33.45
2023-12-05T02:00:10.935Z,31.88
2023-12-05T02:02:42.671Z,31.88
2023-12-05T02:05:11.711Z,32.47
2023-12-05T02:07:39.438Z,34.20
2023-12-05T02:10:07.690Z,31.77
2023-12-05T02:12:35.492Z,35.92
2023-12-05T02:15:04.749Z,31.63
2023-12-05T02:17:41.432Z,37.20
2023-12-05T02:20:12.315Z,34.42
2023-12-05T02:22:52.114Z,36.13
2023-12-05T02:25:23.215Z,39.70
2023-12-05T02:27:51.191Z,37.85
2023-12-05T02:30:18.958Z,37.78
2023-12-05T02:32:46.707Z,34.53
2023-12-05T02:35:14.437Z,36.92
2023-12-05T02:38:03.927Z,36.08
2023-12-05T02:40:37.179Z,39.70
2023-12-05T02:43:06.852Z,43.03
2023-12-05T02:45:34.999Z,37.50
2023-12-05T02:48:03.722Z,43.33
2023-12-05T02:50:31.480Z,41.13
2023-12-05T02:52:59.395Z,43.97
2023-12-05T02:55:27.106Z,41.00
2023-12-05T02:57:54.998Z,43.08
2023-12-05T03:00:23.537Z,41.00
2023-12-05T03:02:51.158Z,41.83
2023-12-05T03:05:20.028Z,40.47
2023-12-05T03:07:47.632Z,43.20
2023-12-05T03:10:15.301Z,42.15
2023-12-05T03:12:43.160Z,47.60
2023-12-05T03:15:11.044Z,41.25
2023-12-05T03:17:39.019Z,41.78
2023-12-05T03:20:07.475Z,39.72
2023-12-05T03:22:35.262Z,41.15
2023-12-05T03:25:03.146Z,40.33
2023-12-05T03:27:30.866Z,39.75
2023-12-05T03:29:58.482Z,41.40
2023-12-05T03:32:26.056Z,39.28
2023-12-05T03:34:53.805Z,40.63
2023-12-05T03:37:21.388Z,38.58
2023-12-05T03:39:49.016Z,38.40
2023-12-05T03:42:16.795Z,41.63
2023-12-05T03:44:44.474Z,39.47
2023-12-05T03:47:12.361Z,36.45
2023-12-05T03:49:40.105Z,36.00
2023-12-05T03:52:07.976Z,36.35
2023-12-05T03:54:35.619Z,36.67
2023-12-05T03:57:03.361Z,34.40
2023-12-05T03:59:30.997Z,32.63
2023-12-05T04:02:00.099Z,32.92
2023-12-05T04:04:31.021Z,33.17
2023-12-05T04:06:58.711Z,25.65
2023-12-05T04:09:26.372Z,34.00
2023-12-05T04:11:54.005Z,31.70
2023-12-05T04:14:21.647Z,34.33
2023-12-05T04:16:49.325Z,33.63
2023-12-05T04:19:17.201Z,34.65
2023-12-05T04:21:45.566Z,35.30
2023-12-05T04:24:13.435Z,36.70
2023-12-05T04:26:41.099Z,35.03
2023-12-05T04:29:08.859Z,38.67
2023-12-05T04:31:36.832Z,39.83
2023-12-05T04:34:04.583Z,39.53
2023-12-05T04:36:32.224Z,39.65
2023-12-05T04:39:00.994Z,38.05
2023-12-05T04:41:35.049Z,40.25
2023-12-05T04:44:03.044Z,38.92
2023-12-05T04:46:30.862Z,41.50
2023-12-05T04:48:58.647Z,43.65
2023-12-05T04:51:26.583Z,40.42
2023-12-05T04:53:56.405Z,38.10
2023-12-05T04:56:24.365Z,38.17
2023-12-05T04:58:52.381Z,44.30
2023-12-05T05:01:20.245Z,41.10
2023-12-05T05:03:48.119Z,42.22
2023-12-05T05:06:16.050Z,41.63
2023-12-05T05:08:44.146Z,42.92
2023-12-05T05:11:12.164Z,40.90
2023-12-05T05:13:46.119Z,41.72
2023-12-05T05:16:20.478Z,36.60
2023-12-05T05:18:49.451Z,29.50
2023-12-05T05:21:17.460Z,25.52
2023-12-05T05:23:45.211Z,27.08
2023-12-05T05:26:12.812Z,27.58
2023-12-05T05:28:40.473Z,24.48
2023-12-05T05:31:08.576Z,27.85
2023-12-05T05:33:36.424Z,26.65
2023-12-05T05:36:04.682Z,27.40
2023-12-05T05:38:32.507Z,31.08
2023-12-05T05:41:07.813Z,32.15
2023-12-05T05:43:35.913Z,28.50
2023-12-05T05:46:03.953Z,16.95
2023-12-05T05:48:32.238Z,3.70
2023-12-05T05:53:18.515Z,2.42
2023-12-05T05:55:46.397Z,3.05
2023-12-05T05:58:14.626Z,3.97
2023-12-05T06:00:42.893Z,4.63
2023-12-05T06:03:10.743Z,1.65
2023-12-05T06:05:38.530Z,2.47
2023-12-05T06:08:06.949Z,3.13
2023-12-05T06:17:38.477Z,2.92
2023-12-05T06:27:27.729Z,4.45
2023-12-05T06:29:55.627Z,2.72
2023-12-05T06:32:24.721Z,5.15
2023-12-05T06:34:52.634Z,6.18
2023-12-05T06:37:22.191Z,18.65
2023-12-05T06:39:50.082Z,21.90
2023-12-05T06:42:17.815Z,23.92
2023-12-05T06:44:45.524Z,26.80
2023-12-05T06:47:13.601Z,24.60
2023-12-05T06:49:44.646Z,30.75
2023-12-05T06:52:14.230Z,33.80
2023-12-05T06:54:42.358Z,36.20
2023-12-05T06:57:10.481Z,31.08
2023-12-05T06:59:40.206Z,30.85
2023-12-05T07:02:07.991Z,39.50
2023-12-05T07:04:36.023Z,30.08
2023-12-05T07:07:03.936Z,31.35
2023-12-05T07:09:36.187Z,29.92
2023-12-05T07:12:04.777Z,33.20
2023-12-05T07:14:35.989Z,35.47
2023-12-05T07:19:31.644Z,31.02
2023-12-05T07:21:59.538Z,30.42
2023-12-05T07:24:28.085Z,28.70
2023-12-05T07:26:57.546Z,29.52
2023-12-05T07:29:25.844Z,27.55
2023-12-05T07:31:54.790Z,26.17
2023-12-05T07:34:23.352Z,20.77
2023-12-05T07:36:51.125Z,6.30
2023-12-05T07:39:19.123Z,6.00
2023-12-05T07:41:47.234Z,7.30
2023-12-05T07:44:15.493Z,8.07
2023-12-05T07:46:43.910Z,7.90
2023-12-05T07:49:12.997Z,8.18
2023-12-05T07:51:40.878Z,9.20
2023-12-05T07:54:08.933Z,9.20
2023-12-05T07:56:36.834Z,9.43
2023-12-05T07:59:04.686Z,6.03
2023-12-05T08:01:33.059Z,8.00
2023-12-05T08:04:04.724Z,5.55
2023-12-05T08:06:32.780Z,4.35
2023-12-05T08:09:01.500Z,4.55
2023-12-05T08:11:29.323Z,3.88
2023-12-05T08:13:57.796Z,3.55
2023-12-05T08:16:25.931Z,4.55
2023-12-05T08:18:54.092Z,4.97
2023-12-05T08:21:22.252Z,3.75
2023-12-05T08:23:50.251Z,4.55
2023-12-05T08:26:18.165Z,4.05
2023-12-05T08:28:45.867Z,4.00
2023-12-05T08:31:13.512Z,3.05
2023-12-05T08:33:41.563Z,2.53
2023-12-05T08:36:10.417Z,2.40
2023-12-05T08:38:38.114Z,2.17
2023-12-05T08:41:06.317Z,2.42
2023-12-05T08:43:34.534Z,4.53
2023-12-05T08:46:06.253Z,1.65
2023-12-05T08:48:36.188Z,2.70
2023-12-05T08:51:04.177Z,1.65
2023-12-05T08:53:31.939Z,2.08
2023-12-05T08:56:00.249Z,2.60
2023-12-05T08:58:27.901Z,2.15
2023-12-05T09:00:55.615Z,0.98
2023-12-05T09:03:23.510Z,2.47
2023-12-05T09:05:51.350Z,1.98
2023-12-05T09:08:19.296Z,2.03
2023-12-05T09:10:47.474Z,4.18
2023-12-05T09:13:16.745Z,2.47
2023-12-05T09:15:44.855Z,2.85
2023-12-05T09:18:14.310Z,1.23
2023-12-05T09:20:42.951Z,1.75
2023-12-05T09:23:12.457Z,1.67
2023-12-05T09:25:40.800Z,5.18
2023-12-05T09:28:08.859Z,2.83
2023-12-05T09:30:36.993Z,2.83
2023-12-05T09:33:06.129Z,5.95
2023-12-05T09:35:34.485Z,2.85
2023-12-05T09:38:04.167Z,5.47
2023-12-05T09:40:33.111Z,3.83
2023-12-05T09:43:02.585Z,5.05
2023-12-05T09:45:36.346Z,3.08
2023-12-05T09:48:07.294Z,3.38
2023-12-05T09:50:37.064Z,4.85
2023-12-05T09:53:11.218Z,3.38
2023-12-05T09:55:40.487Z,2.65
2023-12-05T09:58:08.944Z,3.42
2023-12-05T10:00:37.974Z,4.63
2023-12-05T10:03:08.376Z,5.32
2023-12-05T10:05:36.775Z,6.25
2023-12-05T10:08:05.210Z,3.97
2023-12-05T10:10:34.447Z,4.75
2023-12-05T10:13:04.215Z,2.55
2023-12-05T10:15:32.414Z,2.63
2023-12-05T10:18:00.761Z,3.10
2023-12-05T10:20:28.600Z,3.22
2023-12-05T10:22:56.844Z,4.55
2023-12-05T10:25:24.843Z,4.82
2023-12-05T10:28:02.920Z,4.95
2023-12-05T10:30:41.262Z,4.22
2023-12-05T10:33:16.640Z,2.65
2023-12-05T10:35:46.461Z,3.33
2023-12-05T10:38:15.124Z,5.88
2023-12-05T10:40:56.971Z,5.82
2023-12-05T10:43:26.708Z,6.07
2023-12-05T10:45:57.349Z,6.70
2023-12-05T10:48:25.638Z,5.18
2023-12-05T10:50:54.733Z,6.85
2023-12-05T10:53:23.214Z,5.13
2023-12-05T10:55:51.407Z,4.88
2023-12-05T10:58:20.226Z,3.70
2023-12-05T11:00:49.589Z,3.95
2023-12-05T11:03:18.254Z,3.65
2023-12-05T11:05:46.820Z,5.93
2023-12-05T11:08:14.578Z,3.35
2023-12-05T11:10:42.542Z,1.50
2023-12-05T11:13:15.331Z,4.75
2023-12-05T11:15:44.256Z,3.65
2023-12-05T11:18:31.745Z,1.80
2023-12-05T11:21:13.286Z,2.45
2023-12-05T11:23:47.577Z,2.22
2023-12-05T11:26:15.349Z,3.22
2023-12-05T11:29:01.914Z,2.50
2023-12-05T11:31:31.681Z,3.70
2023-12-05T11:34:17.101Z,2.83
2023-12-05T11:36:52.380Z,4.32
2023-12-05T11:39:20.282Z,2.40
2023-12-05T11:42:07.222Z,2.95
2023-12-05T11:44:40.290Z,3.17
2023-12-05T11:47:15.718Z,3.15
2023-12-05T11:49:57.844Z,4.18
2023-12-05T11:52:28.845Z,1.70
2023-12-05T11:54:58.544Z,4.22
2023-12-05T11:57:30.424Z,4.90
2023-12-05T12:00:01.531Z,3.22
2023-12-05T12:05:02.297Z,1.92
2023-12-05T12:07:30.228Z,1.15
2023-12-05T12:09:58.712Z,1.65
2023-12-05T12:12:27.318Z,1.50
2023-12-05T12:14:58.320Z,2.67
2023-12-05T12:17:26.928Z,1.33
2023-12-05T12:19:57.850Z,2.55
2023-12-05T12:22:26.068Z,3.65
2023-12-05T12:25:04.565Z,5.07
2023-12-05T12:27:36.207Z,2.70
2023-12-05T12:30:04.753Z,2.42
2023-12-05T12:32:32.663Z,3.85
2023-12-05T12:35:03.855Z,3.15
2023-12-05T12:37:37.761Z,1.83
2023-12-05T12:40:10.667Z,1.42
2023-12-05T12:42:40.014Z,3.25
2023-12-05T12:45:09.265Z,2.55
2023-12-05T12:47:36.925Z,1.83
2023-12-05T12:50:06.409Z,5.30
2023-12-05T12:52:34.763Z,2.03
2023-12-05T12:55:02.562Z,8.43
2023-12-05T12:57:30.730Z,3.53
2023-12-05T13:00:29.936Z,1.95
2023-12-05T13:02:55.849Z,5.25
2023-12-05T13:05:33.525Z,3.83
2023-12-05T13:08:01.688Z,2.30
2023-12-05T13:10:29.657Z,1.17
2023-12-05T13:12:59.442Z,2.05
2023-12-05T13:15:27.993Z,1.85
2023-12-05T13:18:04.987Z,3.25
2023-12-05T13:20:34.080Z,3.42
2023-12-05T13:23:02.624Z,1.58
2023-12-05T13:25:36.056Z,2.20
2023-12-05T13:28:11.232Z,1.95
2023-12-05T13:30:38.922Z,1.38
2023-12-05T13:33:13.173Z,4.63
2023-12-05T13:35:42.589Z,2.63
2023-12-05T13:38:10.421Z,2.95
2023-12-05T13:40:38.672Z,1.65
2023-12-05T13:43:09.211Z,3.08
2023-12-05T13:45:36.965Z,2.97
2023-12-05T13:48:08.004Z,1.75
2023-12-05T13:50:35.786Z,4.30
2023-12-05T13:53:03.846Z,1.35
2023-12-05T13:55:31.505Z,3.53
2023-12-05T13:57:59.434Z,2.10
2023-12-05T14:00:27.237Z,3.20
2023-12-05T14:02:55.245Z,1.25
2023-12-05T14:05:23.049Z,2.88
2023-12-05T14:07:50.805Z,1.55
2023-12-05T14:10:18.401Z,2.78
2023-12-05T14:12:46.251Z,3.65
2023-12-05T14:15:14.123Z,2.67
2023-12-05T14:17:41.917Z,4.22
2023-12-05T14:20:11.724Z,3.72
2023-12-05T14:22:39.518Z,2.30
2023-12-05T14:25:08.580Z,2.65
2023-12-05T14:27:36.209Z,7.68
2023-12-05T14:30:05.840Z,5.53
2023-12-05T14:32:33.765Z,5.90
2023-12-05T14:35:01.573Z,3.42
2023-12-05T14:37:29.520Z,3.05
2023-12-05T14:39:57.549Z,5.65
2023-12-05T14:42:25.677Z,2.85
2023-12-05T14:44:53.666Z,5.53
2023-12-05T14:47:21.281Z,3.92
2023-12-05T14:49:49.117Z,3.65
2023-12-05T14:52:17.337Z,2.75
2023-12-05T14:54:45.240Z,4.30
2023-12-05T14:57:12.981Z,2.97
2023-12-05T14:59:40.632Z,2.13
2023-12-05T15:02:10.986Z,2.67
2023-12-05T15:04:39.505Z,5.53
2023-12-05T15:07:07.599Z,1.27
2023-12-05T15:09:36.243Z,2.53
2023-12-05T15:12:05.103Z,2.30
2023-12-05T15:14:33.764Z,2.78
2023-12-05T15:17:05.827Z,2.78
2023-12-05T15:19:33.848Z,3.58
2023-12-05T15:22:01.799Z,1.58
2023-12-05T15:24:29.903Z,3.47
2023-12-05T15:26:59.125Z,2.25
2023-12-05T15:29:32.555Z,3.53
2023-12-05T15:32:08.210Z,2.15
2023-12-05T15:34:36.054Z,2.88
2023-12-05T15:37:04.112Z,1.83
2023-12-05T15:39:31.962Z,2.45
2023-12-05T15:42:00.932Z,1.08
2023-12-05T15:44:30.845Z,2.53
2023-12-05T15:46:58.846Z,1.92
2023-12-05T15:49:27.312Z,2.10
2023-12-05T15:51:55.097Z,1.90
2023-12-05T15:54:22.731Z,1.70
2023-12-05T15:56:50.718Z,1.70
2023-12-05T15:59:21.058Z,0.80
2023-12-05T16:01:49.066Z,1.73
2023-12-05T16:04:16.652Z,7.07
2023-12-05T16:06:46.108Z,3.30
2023-12-05T16:09:17.495Z,3.88
2023-12-05T16:11:52.161Z,0.55
2023-12-05T16:16:55.718Z,0.65
2023-12-05T16:19:23.626Z,2.53
2023-12-05T16:21:51.573Z,1.92
2023-12-05T16:24:23.951Z,2.00
2023-12-05T16:26:51.803Z,1.40
2023-12-05T16:29:22.738Z,1.65
2023-12-05T16:34:45.492Z,0.90
2023-12-05T16:37:13.271Z,2.45
2023-12-05T16:39:41.593Z,1.77
2023-12-05T16:42:09.203Z,2.42
2023-12-05T16:44:37.084Z,0.60
2023-12-05T16:47:04.852Z,0.80
2023-12-05T16:49:32.905Z,2.83
2023-12-05T16:52:00.911Z,0.68
2023-12-05T16:54:28.811Z,1.65
2023-12-05T16:56:56.917Z,0.43
2023-12-05T16:59:28.608Z,0.75
2023-12-05T17:02:00.280Z,0.95
2023-12-05T17:04:28.929Z,1.88
2023-12-05T17:07:42.601Z,0.85
2023-12-05T17:10:33.534Z,0.88
2023-12-05T17:13:01.533Z,0.70
2023-12-05T17:15:29.591Z,1.73
2023-12-05T17:21:31.896Z,0.77
2023-12-05T17:23:59.568Z,1.43
2023-12-05T17:26:27.265Z,1.85
2023-12-05T17:28:55.947Z,0.77
2023-12-05T17:38:37.566Z,2.25
2023-12-05T17:41:06.670Z,0.90
2023-12-05T17:43:35.366Z,0.85
2023-12-05T17:46:03.429Z,0.75
2023-12-05T17:49:14.824Z,1.70
2023-12-05T17:51:45.546Z,1.10
2023-12-05T17:58:04.199Z,0.70
2023-12-05T18:00:32.261Z,1.52
2023-12-05T18:03:00.293Z,1.27
2023-12-05T18:05:33.282Z,0.63
2023-12-05T18:08:08.503Z,0.47
2023-12-05T18:10:37.406Z,0.30
2023-12-05T18:13:06.298Z,0.65
2023-12-05T18:15:34.218Z,0.60
2023-12-05T18:18:02.090Z,1.02
2023-12-05T19:27:25.037Z,2.20
2023-12-05T19:29:53.389Z,1.35
2023-12-05T19:32:21.460Z,0.85
2023-12-05T20:03:50.850Z,0.60
2023-12-05T20:06:19.461Z,1.48
2023-12-05T20:08:48.277Z,0.75
2023-12-05T20:11:19.054Z,0.30
2023-12-05T20:13:47.004Z,1.40
2023-12-05T20:16:15.117Z,1.70
2023-12-05T20:18:42.858Z,0.70
2023-12-05T20:21:10.777Z,2.65
2023-12-05T20:32:44.487Z,1.80
2023-12-05T20:35:13.073Z,1.48
2023-12-05T20:37:41.456Z,3.05
2023-12-05T20:40:21.785Z,1.20
2023-12-05T21:41:17.420Z,1.45
2023-12-05T21:43:54.531Z,2.15
2023-12-05T21:46:30.019Z,2.55
2023-12-05T21:48:58.608Z,1.60
2023-12-05T21:51:29.860Z,2.58
2023-12-05T21:54:00.370Z,1.85
2023-12-05T21:56:29.874Z,1.85
2023-12-05T21:58:59.402Z,2.45
2023-12-05T22:01:29.200Z,4.30
2023-12-05T22:04:05.276Z,4.82
2023-12-05T22:06:33.301Z,1.35
2023-12-05T22:09:01.157Z,2.20
2023-12-05T22:11:28.868Z,2.25
2023-12-05T22:13:57.354Z,1.10
2023-12-05T22:16:25.043Z,2.40
2023-12-05T22:18:54.030Z,1.60
2023-12-05T22:21:21.747Z,3.35
2023-12-05T22:23:49.769Z,2.17
2023-12-05T22:26:19.719Z,0.93
2023-12-05T22:28:47.540Z,5.07
2023-12-05T22:31:16.678Z,2.15
2023-12-05T22:33:45.143Z,1.80
2023-12-05T22:36:20.895Z,2.25
2023-12-05T22:38:48.989Z,1.88
2023-12-05T22:41:16.601Z,0.93
2023-12-05T22:43:44.979Z,1.48
2023-12-05T22:46:14.240Z,1.48
2023-12-05T22:48:42.888Z,1.60
2023-12-05T22:51:11.670Z,1.73
2023-12-05T22:56:07.299Z,2.25
2023-12-05T22:58:35.358Z,0.73
2023-12-05T23:01:03.464Z,0.88
2023-12-05T23:03:31.745Z,2.35
2023-12-05T23:05:59.535Z,1.15
2023-12-05T23:08:27.470Z,2.58
2023-12-05T23:10:55.127Z,1.52
2023-12-05T23:13:23.304Z,1.42
2023-12-05T23:15:53.915Z,1.10
2023-12-05T23:18:21.595Z,0.50
2023-12-05T23:20:49.302Z,1.50
2023-12-05T23:23:17.176Z,1.42
2023-12-05T23:25:44.818Z,1.73
2023-12-05T23:28:18.569Z,2.42
2023-12-05T23:30:52.889Z,0.60
2023-12-05T23:35:49.261Z,1.08
2023-12-05T23:38:16.970Z,2.63
2023-12-05T23:40:44.812Z,2.58
2023-12-05T23:43:12.728Z,2.38
2023-12-05T23:45:40.587Z,0.80
2023-12-05T23:48:08.590Z,1.50
2023-12-05T23:50:36.593Z,1.45
2023-12-05T23:53:04.348Z,3.63
2023-12-05T23:55:32.034Z,1.30
2023-12-05T23:58:01.687Z,2.05
